Time;durP1;ratioP1;P1;durP2;ratioP2;P2;SDS_P1;SDS_P2;PMS_P1;PMS_P2;Temp;Humidity;BMP_temperature;BMP_pressure;BME280_temperature;BME280_humidity;BME280_pressure;Samples;Min_cycle;Max_cycle;Signal;HPM_P1;HPM_P2
2021/12/13 00:01:34;;;;;;;1.35;1.15;;;;;;;;;;4975751;28;20469;-22
2021/12/13 00:04:05;;;;;;;1.17;0.80;;;;;;;;;;4975521;28;20058;-22
2021/12/13 00:06:33;;;;;;;0.80;0.80;;;;;;;;;;4975755;28;20027;-23
2021/12/13 00:09:00;;;;;;;1.95;0.90;;;;;;;;;;4975696;28;20038;-21
2021/12/13 00:11:29;;;;;;;1.27;0.80;;;;;;;;;;4975691;28;20027;-22
2021/12/13 00:13:58;;;;;;;1.20;1.10;;;;;;;;;;4975582;28;20035;-22
2021/12/13 00:16:26;;;;;;;1.20;1.10;;;;;;;;;;4975608;28;20026;-22
2021/12/13 00:18:55;;;;;;;1.33;1.23;;;;;;;;;;4975512;28;20062;-22
2021/12/13 00:21:24;;;;;;;0.82;0.80;;;;;;;;;;4975847;28;20037;-22
2021/12/13 00:23:58;;;;;;;1.33;1.00;;;;;;;;;;4958403;28;20054;-22
2021/12/13 00:26:27;;;;;;;0.88;0.88;;;;;;;;;;4976023;28;20022;-22
2021/12/13 00:28:53;;;;;;;0.90;0.90;;;;;;;;;;4975394;28;20046;-21
2021/12/13 00:31:25;;;;;;;2.10;1.13;;;;;;;;;;4975447;28;20042;-22
2021/12/13 00:34:10;;;;;;;0.82;0.82;;;;;;;;;;4977137;28;20046;-22
2021/12/13 00:36:41;;;;;;;0.98;0.93;;;;;;;;;;4979502;28;20051;-22
2021/12/13 00:39:27;;;;;;;1.17;1.08;;;;;;;;;;4979904;28;20395;-22
2021/12/13 00:41:54;;;;;;;1.10;1.00;;;;;;;;;;4979404;28;20034;-21
2021/12/13 00:44:32;;;;;;;1.13;1.00;;;;;;;;;;4979556;28;20218;-22
2021/12/13 00:47:01;;;;;;;1.05;0.90;;;;;;;;;;4962248;28;20026;-21
2021/12/13 00:49:28;;;;;;;0.90;0.90;;;;;;;;;;4979489;28;20058;-25
2021/12/13 00:51:56;;;;;;;1.02;0.85;;;;;;;;;;4979074;28;20373;-22
2021/12/13 00:54:28;;;;;;;0.57;0.57;;;;;;;;;;4979106;28;20031;-22
2021/12/13 00:57:00;;;;;;;1.00;0.90;;;;;;;;;;4979094;28;20033;-22
2021/12/13 00:59:35;;;;;;;1.55;0.98;;;;;;;;;;4979481;28;20105;-22
2021/12/13 01:02:01;;;;;;;0.93;0.90;;;;;;;;;;4978915;28;20065;-22
2021/12/13 01:04:47;;;;;;;1.13;0.90;;;;;;;;;;4978907;28;20047;-21
2021/12/13 01:07:31;;;;;;;1.50;1.13;;;;;;;;;;4979188;28;20062;-22
2021/12/13 01:10:00;;;;;;;1.13;0.90;;;;;;;;;;4978901;28;20050;-22
2021/12/13 01:12:27;;;;;;;1.10;1.00;;;;;;;;;;4978771;28;20113;-22
2021/12/13 01:14:58;;;;;;;0.65;0.65;;;;;;;;;;4961760;28;20395;-22
2021/12/13 01:17:37;;;;;;;0.80;0.80;;;;;;;;;;4979047;28;20105;-23
2021/12/13 01:20:16;;;;;;;1.65;1.10;;;;;;;;;;4978882;28;20073;-22
2021/12/13 01:22:51;;;;;;;1.13;0.95;;;;;;;;;;4978876;28;20027;-22
2021/12/13 01:25:37;;;;;;;1.10;1.00;;;;;;;;;;4978942;28;20358;-22
2021/12/13 01:28:15;;;;;;;1.05;0.80;;;;;;;;;;4978879;28;20106;-22
2021/12/13 01:30:43;;;;;;;0.73;0.73;;;;;;;;;;4978846;28;20082;-22
2021/12/13 01:33:11;;;;;;;1.52;0.95;;;;;;;;;;4978512;28;20362;-22
2021/12/13 01:35:40;;;;;;;0.80;0.77;;;;;;;;;;4978442;28;20097;-22
2021/12/13 01:38:17;;;;;;;1.02;0.90;;;;;;;;;;4978341;28;20378;-21
2021/12/13 01:40:49;;;;;;;1.27;1.17;;;;;;;;;;4978619;28;20029;-21
2021/12/13 01:43:20;;;;;;;1.23;1.02;;;;;;;;;;4978288;28;20034;-22
2021/12/13 01:45:48;;;;;;;1.23;1.00;;;;;;;;;;4977686;28;20106;-21
2021/12/13 01:48:16;;;;;;;0.90;0.90;;;;;;;;;;4978415;28;20466;-23
2021/12/13 01:50:48;;;;;;;1.30;0.82;;;;;;;;;;4978162;28;20173;-23
2021/12/13 01:53:15;;;;;;;1.10;0.98;;;;;;;;;;4961019;28;20058;-22
2021/12/13 01:55:44;;;;;;;1.48;0.90;;;;;;;;;;4978306;28;20101;-22
2021/12/13 02:01:11;;;;;;;1.05;0.95;;;;;;;;;;4978601;28;20177;-24
2021/12/13 02:03:42;;;;;;;1.13;1.10;;;;;;;;;;4977781;28;20046;-23
2021/12/13 02:06:09;;;;;;;1.88;1.23;;;;;;;;;;4978218;28;20311;-21
2021/12/13 02:08:36;;;;;;;1.65;1.00;;;;;;;;;;4978069;28;20046;-22
2021/12/13 02:11:03;;;;;;;1.25;1.00;;;;;;;;;;4977754;28;20089;-22
2021/12/13 02:13:37;;;;;;;0.80;0.80;;;;;;;;;;4977901;28;20414;-22
2021/12/13 02:18:53;;;;;;;0.95;0.90;;;;;;;;;;4977853;28;20101;-22
2021/12/13 02:21:28;;;;;;;1.25;0.85;;;;;;;;;;4977871;28;20022;-22
2021/12/13 02:24:01;;;;;;;1.15;1.13;;;;;;;;;;4960441;28;20130;-22
2021/12/13 02:26:28;;;;;;;1.20;1.10;;;;;;;;;;4977796;28;20050;-23
2021/12/13 02:29:07;;;;;;;1.80;1.00;;;;;;;;;;4977693;28;20105;-22
2021/12/13 02:31:37;;;;;;;1.00;0.90;;;;;;;;;;4977681;28;20058;-22
2021/12/13 02:34:13;;;;;;;0.70;0.70;;;;;;;;;;4977820;28;20332;-22
2021/12/13 02:36:41;;;;;;;2.45;1.63;;;;;;;;;;4977312;28;20035;-23
2021/12/13 02:39:14;;;;;;;0.63;0.63;;;;;;;;;;4977149;28;20081;-22
2021/12/13 02:41:40;;;;;;;0.90;0.90;;;;;;;;;;4977618;28;20061;-22
2021/12/13 02:44:27;;;;;;;1.40;1.00;;;;;;;;;;4960050;28;20026;-22
2021/12/13 02:46:55;;;;;;;0.82;0.80;;;;;;;;;;4977488;28;20413;-23
2021/12/13 02:49:21;;;;;;;0.88;0.88;;;;;;;;;;4977543;28;20089;-22
2021/12/13 02:51:52;;;;;;;1.30;1.02;;;;;;;;;;4976991;28;20053;-22
2021/12/13 02:54:22;;;;;;;0.95;0.88;;;;;;;;;;4960463;28;20172;-23
2021/12/13 02:56:53;;;;;;;0.90;0.90;;;;;;;;;;4977197;28;20358;-22
2021/12/13 02:59:21;;;;;;;1.05;0.95;;;;;;;;;;4977025;28;20049;-22
2021/12/13 03:01:50;;;;;;;1.58;1.45;;;;;;;;;;4976885;28;20027;-22
2021/12/13 03:04:19;;;;;;;1.75;0.85;;;;;;;;;;4976699;28;20038;-21
2021/12/13 03:06:50;;;;;;;0.70;0.70;;;;;;;;;;4977261;28;20343;-22
2021/12/13 03:09:19;;;;;;;0.77;0.77;;;;;;;;;;4976727;28;20394;-22
2021/12/13 03:11:46;;;;;;;0.85;0.75;;;;;;;;;;4976591;28;20336;-21
2021/12/13 03:14:17;;;;;;;0.70;0.70;;;;;;;;;;4976585;28;20027;-21
2021/12/13 03:16:43;;;;;;;;;;;;;;;;;;4977276;28;20417;-22
2021/12/13 03:19:11;;;;;;;1.25;1.00;;;;;;;;;;4976980;28;20049;-22
2021/12/13 03:21:56;;;;;;;1.02;0.93;;;;;;;;;;4976522;28;20031;-22
2021/12/13 03:24:39;;;;;;;0.98;0.98;;;;;;;;;;4959358;28;20478;-22
2021/12/13 03:27:09;;;;;;;2.08;0.90;;;;;;;;;;4976345;28;20030;-22
2021/12/13 03:29:52;;;;;;;0.93;0.82;;;;;;;;;;4976227;28;20053;-22
2021/12/13 03:32:20;;;;;;;0.80;0.68;;;;;;;;;;4976464;28;20131;-24
2021/12/13 03:35:03;;;;;;;1.23;0.80;;;;;;;;;;4976256;28;20035;-23
2021/12/13 03:37:29;;;;;;;0.80;0.80;;;;;;;;;;4976146;28;20026;-21
2021/12/13 03:40:00;;;;;;;1.15;0.85;;;;;;;;;;4977077;28;20406;-21
2021/12/13 03:42:31;;;;;;;2.80;1.27;;;;;;;;;;4976259;28;20034;-22
2021/12/13 03:45:01;;;;;;;1.00;0.85;;;;;;;;;;4976597;28;20027;-22
2021/12/13 03:47:33;;;;;;;0.85;0.82;;;;;;;;;;4976003;28;20118;-22
2021/12/13 03:50:01;;;;;;;1.17;0.98;;;;;;;;;;4976585;28;20029;-22
2021/12/13 03:52:29;;;;;;;1.13;0.85;;;;;;;;;;4975901;28;20066;-22
2021/12/13 03:54:57;;;;;;;0.90;0.90;;;;;;;;;;4976147;28;20110;-21
2021/12/13 03:57:24;;;;;;;0.75;0.75;;;;;;;;;;4975789;28;20106;-22
2021/12/13 03:59:51;;;;;;;0.90;0.90;;;;;;;;;;4976024;28;20089;-22
2021/12/13 04:02:25;;;;;;;1.50;0.90;;;;;;;;;;4975749;28;20019;-22
2021/12/13 04:05:12;;;;;;;1.35;0.70;;;;;;;;;;4975556;28;20129;-23
2021/12/13 04:07:40;;;;;;;1.20;1.10;;;;;;;;;;4975846;28;20050;-22
2021/12/13 04:10:12;;;;;;;0.85;0.80;;;;;;;;;;4976577;28;20382;-21
2021/12/13 04:12:47;;;;;;;0.80;0.80;;;;;;;;;;4975863;28;20069;-22
2021/12/13 04:15:19;;;;;;;1.15;0.90;;;;;;;;;;4975942;28;20361;-22
2021/12/13 04:17:59;;;;;;;1.15;0.98;;;;;;;;;;4958524;28;20039;-22
2021/12/13 04:20:28;;;;;;;1.38;0.98;;;;;;;;;;4975750;28;20031;-23
2021/12/13 04:22:56;;;;;;;0.98;0.98;;;;;;;;;;4975470;28;20089;-22
2021/12/13 04:25:25;;;;;;;0.85;0.85;;;;;;;;;;4975557;28;20476;-22
2021/12/13 04:27:57;;;;;;;0.60;0.60;;;;;;;;;;4975759;28;20050;-23
2021/12/13 04:30:26;;;;;;;1.45;0.88;;;;;;;;;;4975397;28;20066;-22
2021/12/13 04:32:55;;;;;;;2.08;1.05;;;;;;;;;;4975369;28;20030;-22
2021/12/13 04:35:21;;;;;;;1.20;1.10;;;;;;;;;;4975458;28;20135;-22
2021/12/13 04:37:49;;;;;;;0.90;0.90;;;;;;;;;;4975411;28;20026;-22
2021/12/13 04:40:27;;;;;;;0.95;0.90;;;;;;;;;;4975487;28;20042;-22
2021/12/13 04:43:00;;;;;;;0.95;0.95;;;;;;;;;;4976035;28;20031;-23
2021/12/13 04:45:28;;;;;;;0.88;0.88;;;;;;;;;;4975562;28;20054;-22
2021/12/13 04:47:57;;;;;;;0.65;0.63;;;;;;;;;;4975250;28;20111;-23
2021/12/13 04:50:31;;;;;;;0.82;0.73;;;;;;;;;;4975271;28;20458;-22
2021/12/13 04:52:58;;;;;;;0.70;0.70;;;;;;;;;;4975403;28;20054;-22
2021/12/13 04:55:34;;;;;;;1.25;1.13;;;;;;;;;;4958056;28;20098;-22
2021/12/13 04:58:02;;;;;;;0.98;0.93;;;;;;;;;;4958501;28;20105;-22
2021/12/13 05:00:31;;;;;;;1.35;0.90;;;;;;;;;;4975061;28;20022;-22
2021/12/13 05:02:59;;;;;;;1.13;0.82;;;;;;;;;;4957846;28;20068;-23
2021/12/13 05:05:27;;;;;;;0.98;0.80;;;;;;;;;;4974976;28;20031;-22
2021/12/13 05:07:57;;;;;;;1.42;1.27;;;;;;;;;;4975138;28;20026;-22
2021/12/13 05:10:25;;;;;;;1.52;1.42;;;;;;;;;;4958461;28;20046;-23
2021/12/13 05:13:07;;;;;;;2.22;0.82;;;;;;;;;;4958002;28;20347;-24
2021/12/13 05:15:34;;;;;;;0.90;0.90;;;;;;;;;;4957844;28;20038;-24
2021/12/13 05:18:02;;;;;;;1.10;1.00;;;;;;;;;;4975189;28;20031;-23
2021/12/13 05:20:37;;;;;;;1.20;0.60;;;;;;;;;;4975813;28;20034;-22
2021/12/13 05:23:08;;;;;;;0.68;0.68;;;;;;;;;;4978943;28;20488;-22
2021/12/13 05:25:42;;;;;;;0.90;0.70;;;;;;;;;;4978912;28;20446;-21
2021/12/13 05:28:08;;;;;;;8.52;0.82;;;;;;;;;;4978993;28;20023;-21
2021/12/13 05:30:35;;;;;;;2.67;0.93;;;;;;;;;;4978586;28;20362;-22
2021/12/13 05:33:04;;;;;;;1.20;0.95;;;;;;;;;;4978374;28;20430;-22
2021/12/13 05:35:37;;;;;;;1.67;0.98;;;;;;;;;;4978969;28;20093;-21
2021/12/13 05:38:05;;;;;;;4.93;2.72;;;;;;;;;;4978860;28;20058;-22
2021/12/13 05:40:43;;;;;;;0.70;0.70;;;;;;;;;;4978630;28;20030;-22
2021/12/13 05:43:30;;;;;;;3.75;0.93;;;;;;;;;;4978071;28;20039;-22
2021/12/13 05:46:01;;;;;;;3.70;1.30;;;;;;;;;;4978875;28;20034;-22
2021/12/13 05:48:27;;;;;;;;;;;;;;;;;;4978748;28;20105;-22
2021/12/13 05:50:55;;;;;;;5.25;1.00;;;;;;;;;;4978097;28;19956;-22
2021/12/13 05:53:25;;;;;;;11.63;1.50;;;;;;;;;;4978010;28;20122;-22
2021/12/13 05:55:54;;;;;;;20.88;2.30;;;;;;;;;;4978176;28;20097;-23
2021/12/13 05:58:44;;;;;;;7.63;1.23;;;;;;;;;;4978046;28;20073;-22
2021/12/13 06:03:55;;;;;;;5.47;1.60;;;;;;;;;;5086703;23;20372;-31
2021/12/13 06:06:29;;;;;;;12.27;1.40;;;;;;;;;;4977851;28;20030;-31
2021/12/13 06:08:56;;;;;;;19.73;2.00;;;;;;;;;;4960888;28;20031;-31
2021/12/13 06:11:34;;;;;;;21.15;2.08;;;;;;;;;;4960698;28;20089;-30
2021/12/13 06:14:00;;;;;;;18.35;3.05;;;;;;;;;;4978000;28;20030;-31
2021/12/13 06:16:27;;;;;;;10.15;1.58;;;;;;;;;;4977977;28;20105;-31
2021/12/13 06:18:59;;;;;;;19.95;1.75;;;;;;;;;;4977798;28;20071;-31
2021/12/13 06:21:28;;;;;;;21.80;1.80;;;;;;;;;;4978032;28;20022;-31
2021/12/13 06:23:54;;;;;;;14.55;1.83;;;;;;;;;;4977506;28;20026;-31
2021/12/13 06:26:26;;;;;;;21.00;2.33;;;;;;;;;;4960706;28;20098;-31
2021/12/13 06:28:57;;;;;;;25.73;2.97;;;;;;;;;;4977941;28;20393;-31
2021/12/13 06:31:24;;;;;;;37.05;3.08;;;;;;;;;;4960341;28;20498;-31
2021/12/13 06:33:59;;;;;;;24.92;2.90;;;;;;;;;;4977477;28;20031;-31
2021/12/13 06:36:37;;;;;;;15.75;2.65;;;;;;;;;;4977316;28;20033;-31
2021/12/13 06:39:08;;;;;;;14.02;1.40;;;;;;;;;;4960227;28;20034;-31
2021/12/13 06:41:35;;;;;;;;;;;;;;;;;;4978000;28;20041;-31
2021/12/13 06:44:08;;;;;;;4.28;1.30;;;;;;;;;;4977907;28;19910;-31
2021/12/13 06:46:43;;;;;;;17.98;3.15;;;;;;;;;;4977272;28;20413;-32
2021/12/13 06:49:19;;;;;;;5.38;1.33;;;;;;;;;;4977037;28;20089;-30
2021/12/13 06:51:51;;;;;;;10.27;1.60;;;;;;;;;;4977060;28;20397;-30
2021/12/13 06:54:29;;;;;;;11.18;1.38;;;;;;;;;;4976894;28;20033;-30
2021/12/13 06:56:59;;;;;;;16.00;1.73;;;;;;;;;;4977198;28;20048;-30
2021/12/13 06:59:26;;;;;;;13.65;1.67;;;;;;;;;;4976828;28;20474;-32
2021/12/13 07:02:18;;;;;;;16.95;2.00;;;;;;;;;;4976808;28;20089;-32
2021/12/13 07:04:54;;;;;;;21.73;3.28;;;;;;;;;;4972441;28;20117;-30
2021/12/13 07:07:22;;;;;;;21.70;2.45;;;;;;;;;;4976575;28;20022;-29
2021/12/13 07:09:53;;;;;;;15.32;2.70;;;;;;;;;;4976620;28;20030;-30
2021/12/13 07:12:20;;;;;;;23.67;2.97;;;;;;;;;;4976627;28;20401;-31
2021/12/13 07:14:48;;;;;;;16.50;2.03;;;;;;;;;;4976607;28;20362;-31
2021/12/13 07:17:17;;;;;;;26.33;2.78;;;;;;;;;;4977109;28;20327;-32
2021/12/13 07:19:45;;;;;;;21.33;3.22;;;;;;;;;;4959078;28;20030;-32
2021/12/13 07:22:16;;;;;;;19.70;2.50;;;;;;;;;;4976637;28;20023;-30
2021/12/13 07:24:44;;;;;;;30.80;5.50;;;;;;;;;;4976679;28;20022;-31
2021/12/13 07:27:15;;;;;;;36.63;4.15;;;;;;;;;;4976683;28;20034;-32
2021/12/13 07:29:44;;;;;;;33.53;3.47;;;;;;;;;;4976523;28;20347;-31
2021/12/13 07:32:16;;;;;;;33.33;5.35;;;;;;;;;;4976059;28;20110;-31
2021/12/13 07:35:00;;;;;;;30.50;3.17;;;;;;;;;;4976067;28;20031;-31
2021/12/13 07:37:39;;;;;;;43.55;2.67;;;;;;;;;;4976500;28;20035;-31
2021/12/13 07:40:26;;;;;;;24.15;2.70;;;;;;;;;;4976059;28;20022;-32
2021/12/13 07:43:01;;;;;;;20.88;2.97;;;;;;;;;;4975248;28;20397;-31
2021/12/13 07:45:33;;;;;;;35.80;2.60;;;;;;;;;;4976060;28;20038;-31
2021/12/13 07:48:04;;;;;;;41.97;5.40;;;;;;;;;;4976069;28;20027;-31
2021/12/13 07:50:31;;;;;;;46.25;5.60;;;;;;;;;;4976083;28;20105;-32
2021/12/13 07:52:59;;;;;;;41.15;4.50;;;;;;;;;;4975834;28;20046;-31
2021/12/13 07:55:27;;;;;;;34.35;3.33;;;;;;;;;;4958651;28;20031;-31
2021/12/13 07:57:55;;;;;;;19.67;3.42;;;;;;;;;;4975922;28;20027;-31
2021/12/13 08:00:31;;;;;;;25.63;3.00;;;;;;;;;;4975641;28;20074;-31
2021/12/13 08:03:06;;;;;;;21.48;2.70;;;;;;;;;;4975890;28;20051;-31
2021/12/13 08:05:38;;;;;;;20.85;3.10;;;;;;;;;;4976126;28;20079;-32
2021/12/13 08:08:05;;;;;;;23.45;2.78;;;;;;;;;;4975820;28;20362;-31
2021/12/13 08:10:42;;;;;;;25.20;3.15;;;;;;;;;;4975894;28;20458;-32
2021/12/13 08:13:10;;;;;;;45.03;8.60;;;;;;;;;;4975636;28;20038;-31
2021/12/13 08:15:39;;;;;;;36.38;5.55;;;;;;;;;;4975342;28;20059;-30
2021/12/13 08:18:11;;;;;;;35.92;4.05;;;;;;;;;;4958121;28;20050;-30
2021/12/13 08:20:43;;;;;;;57.15;5.32;;;;;;;;;;4975318;28;20030;-30
2021/12/13 08:23:17;;;;;;;25.73;4.43;;;;;;;;;;4975428;28;20505;-31
2021/12/13 08:25:45;;;;;;;44.85;4.78;;;;;;;;;;4975420;28;20047;-29
2021/12/13 08:28:13;;;;;;;42.70;5.07;;;;;;;;;;4975440;28;20035;-30
2021/12/13 08:30:50;;;;;;;74.72;4.63;;;;;;;;;;4975077;28;20031;-31
2021/12/13 08:33:19;;;;;;;36.83;3.88;;;;;;;;;;4975666;28;20106;-30
2021/12/13 08:35:51;;;;;;;47.88;4.50;;;;;;;;;;4958637;28;20442;-32
2021/12/13 08:38:32;;;;;;;52.63;6.07;;;;;;;;;;4975141;28;20031;-31
2021/12/13 08:41:01;;;;;;;35.05;6.00;;;;;;;;;;4975558;28;20030;-32
2021/12/13 08:43:45;;;;;;;49.10;3.55;;;;;;;;;;4975186;28;20037;-31
2021/12/13 08:46:14;;;;;;;38.33;5.03;;;;;;;;;;4975371;28;20062;-32
2021/12/13 08:48:48;;;;;;;27.33;4.97;;;;;;;;;;4975258;28;20419;-31
2021/12/13 08:51:20;;;;;;;24.00;3.35;;;;;;;;;;4975123;28;20112;-30
2021/12/13 08:53:49;;;;;;;36.38;4.90;;;;;;;;;;4975046;28;20106;-31
2021/12/13 08:56:20;;;;;;;31.65;3.10;;;;;;;;;;4978979;28;20092;-31
2021/12/13 08:58:46;;;;;;;;;;;;;;;;;;4979488;28;20122;-30
2021/12/13 09:01:13;;;;;;;28.67;3.15;;;;;;;;;;4978744;28;19914;-31
2021/12/13 09:03:47;;;;;;;27.17;3.70;;;;;;;;;;4978607;28;20142;-31
2021/12/13 09:06:33;;;;;;;41.30;3.95;;;;;;;;;;4979158;28;20035;-30
2021/12/13 09:09:13;;;;;;;48.85;6.63;;;;;;;;;;4978947;28;20034;-31
2021/12/13 09:11:42;;;;;;;32.97;3.28;;;;;;;;;;4978859;28;20074;-31
2021/12/13 09:14:10;;;;;;;51.03;6.47;;;;;;;;;;4979111;28;20058;-31
2021/12/13 09:16:53;;;;;;;34.88;4.45;;;;;;;;;;4978622;28;20035;-30
2021/12/13 09:19:22;;;;;;;62.25;5.88;;;;;;;;;;4978524;28;20035;-31
2021/12/13 09:22:07;;;;;;;76.18;7.47;;;;;;;;;;4978422;28;20046;-31
2021/12/13 09:24:36;;;;;;;70.35;7.75;;;;;;;;;;4961391;28;20050;-30
2021/12/13 09:27:38;;;;;;;68.38;6.80;;;;;;;;;;4978507;28;20039;-31
2021/12/13 09:30:04;;;;;;;;;;;;;;;;;;4882262;29;20037;-32
2021/12/13 09:32:33;;;;;;;47.25;6.53;;;;;;;;;;4959176;28;20242;-31
2021/12/13 09:35:18;;;;;;;45.53;6.10;;;;;;;;;;4978338;28;20041;-31
2021/12/13 09:37:44;;;;;;;50.20;5.43;;;;;;;;;;4978240;28;20034;-31
2021/12/13 09:40:11;;;;;;;36.97;4.70;;;;;;;;;;4978305;28;20106;-31
2021/12/13 09:42:51;;;;;;;37.97;5.22;;;;;;;;;;4978144;28;20205;-31
2021/12/13 09:45:28;;;;;;;59.63;5.93;;;;;;;;;;4978200;28;20102;-30
2021/12/13 09:47:55;;;;;;;51.75;6.95;;;;;;;;;;4978110;28;20027;-32
2021/12/13 09:50:24;;;;;;;36.63;4.70;;;;;;;;;;4978120;28;20026;-31
2021/12/13 09:52:56;;;;;;;55.65;5.88;;;;;;;;;;4978102;28;20077;-32
2021/12/13 09:55:28;;;;;;;62.60;6.47;;;;;;;;;;4961439;28;20097;-32
2021/12/13 09:58:05;;;;;;;30.92;5.57;;;;;;;;;;4978241;28;20093;-31
2021/12/13 10:00:47;;;;;;;42.38;4.30;;;;;;;;;;4960766;28;20031;-32
2021/12/13 10:03:22;;;;;;;61.63;7.30;;;;;;;;;;4977722;28;20051;-30
2021/12/13 10:05:51;;;;;;;48.30;4.97;;;;;;;;;;4977340;28;20049;-31
2021/12/13 10:08:19;;;;;;;41.10;6.05;;;;;;;;;;4977600;28;20031;-33
2021/12/13 10:11:05;;;;;;;40.35;5.25;;;;;;;;;;4977794;28;20110;-31
2021/12/13 10:13:38;;;;;;;55.95;6.60;;;;;;;;;;4960424;28;20030;-30
2021/12/13 10:16:09;;;;;;;67.18;5.72;;;;;;;;;;4977698;28;20039;-32
2021/12/13 10:18:37;;;;;;;43.75;6.78;;;;;;;;;;4977635;28;20110;-31
2021/12/13 10:21:09;;;;;;;75.95;10.52;;;;;;;;;;4977338;28;20057;-31
2021/12/13 10:23:37;;;;;;;56.13;6.13;;;;;;;;;;4977323;28;20105;-32
2021/12/13 10:26:05;;;;;;;46.90;7.30;;;;;;;;;;4977414;28;20030;-31
2021/12/13 10:28:35;;;;;;;56.67;5.18;;;;;;;;;;4977292;28;20031;-32
2021/12/13 10:31:32;;;;;;;54.55;9.95;;;;;;;;;;4977234;28;20023;-31
2021/12/13 10:34:20;;;;;;;43.45;5.63;;;;;;;;;;4976585;28;20474;-32
2021/12/13 10:45:40;;;;;;;47.97;5.85;;;;;;;;;;4976998;28;20034;-31
2021/12/13 10:48:07;;;;;;;31.00;4.72;;;;;;;;;;4976779;28;20026;-31
2021/12/13 10:50:37;;;;;;;47.03;6.28;;;;;;;;;;4976808;28;20054;-30
2021/12/13 10:53:06;;;;;;;43.15;5.00;;;;;;;;;;4976619;28;20365;-30
2021/12/13 10:55:39;;;;;;;54.63;6.45;;;;;;;;;;4976802;28;20088;-31
2021/12/13 10:58:07;;;;;;;47.55;7.03;;;;;;;;;;4976561;28;20028;-31
2021/12/13 11:00:38;;;;;;;49.53;7.93;;;;;;;;;;4976455;28;20065;-30
2021/12/13 11:03:10;;;;;;;51.35;6.05;;;;;;;;;;4976553;28;20358;-31
2021/12/13 11:05:36;;;;;;;46.22;5.72;;;;;;;;;;4976484;28;20353;-31
2021/12/13 11:08:05;;;;;;;48.03;6.20;;;;;;;;;;4977163;28;20102;-30
2021/12/13 11:10:34;;;;;;;50.90;5.93;;;;;;;;;;4959416;28;20061;-31
2021/12/13 11:13:01;;;;;;;63.35;6.18;;;;;;;;;;4976728;28;20034;-30
2021/12/13 11:15:29;;;;;;;51.30;5.95;;;;;;;;;;4976776;28;20034;-30
2021/12/13 11:17:56;;;;;;;49.55;6.25;;;;;;;;;;4975442;28;20078;-30
2021/12/13 11:20:26;;;;;;;45.25;5.05;;;;;;;;;;4976570;28;20044;-30
2021/12/13 11:22:53;;;;;;;46.88;5.63;;;;;;;;;;4959193;28;20026;-31
2021/12/13 11:25:24;;;;;;;57.65;5.82;;;;;;;;;;4976626;28;20034;-30
2021/12/13 11:27:50;;;;;;;68.55;6.30;;;;;;;;;;4976859;28;20458;-32
2021/12/13 11:30:20;;;;;;;46.70;6.20;;;;;;;;;;4976280;28;20035;-31
2021/12/13 11:32:59;;;;;;;63.67;6.85;;;;;;;;;;4976142;28;20034;-32
2021/12/13 11:35:44;;;;;;;74.30;6.40;;;;;;;;;;4976449;28;20022;-31
2021/12/13 11:38:27;;;;;;;50.25;8.52;;;;;;;;;;4975998;28;20496;-31
2021/12/13 11:41:06;;;;;;;42.63;7.15;;;;;;;;;;4976276;28;20030;-32
2021/12/13 11:43:35;;;;;;;43.60;5.80;;;;;;;;;;4975794;28;20026;-31
2021/12/13 11:46:10;;;;;;;37.42;6.78;;;;;;;;;;4976356;28;20039;-32
2021/12/13 11:48:46;;;;;;;69.13;5.97;;;;;;;;;;4975997;28;20023;-31
2021/12/13 11:51:31;;;;;;;44.85;7.07;;;;;;;;;;4976217;28;20077;-32
2021/12/13 11:54:16;;;;;;;40.63;5.40;;;;;;;;;;4958720;28;20054;-31
2021/12/13 11:56:56;;;;;;;48.13;5.10;;;;;;;;;;4976288;28;20038;-32
2021/12/13 11:59:41;;;;;;;47.70;5.63;;;;;;;;;;4976273;28;20054;-31
2021/12/13 12:02:24;;;;;;;46.28;5.00;;;;;;;;;;4975508;28;20031;-33
2021/12/13 12:04:51;;;;;;;48.55;6.07;;;;;;;;;;4975885;28;20362;-32
2021/12/13 12:07:30;;;;;;;35.92;4.80;;;;;;;;;;4975843;28;20391;-31
2021/12/13 12:10:16;;;;;;;41.05;5.28;;;;;;;;;;4975764;28;20031;-31
2021/12/13 12:13:01;;;;;;;41.10;5.78;;;;;;;;;;4959028;28;20082;-31
2021/12/13 12:15:28;;;;;;;46.58;5.50;;;;;;;;;;4975397;28;20039;-31
2021/12/13 12:17:55;;;;;;;37.03;6.30;;;;;;;;;;4975656;28;20031;-31
2021/12/13 12:20:27;;;;;;;37.92;4.85;;;;;;;;;;4958329;28;20409;-31
2021/12/13 12:22:59;;;;;;;46.13;5.95;;;;;;;;;;4958331;28;20030;-31
2021/12/13 12:25:26;;;;;;;62.10;6.45;;;;;;;;;;4975398;28;20023;-31
2021/12/13 12:27:55;;;;;;;55.35;6.32;;;;;;;;;;4975277;28;20034;-31
2021/12/13 12:30:23;;;;;;;56.35;6.53;;;;;;;;;;4974812;28;20101;-32
2021/12/13 12:32:54;;;;;;;47.17;6.40;;;;;;;;;;4975019;28;20049;-32
2021/12/13 12:35:28;;;;;;;47.38;5.70;;;;;;;;;;4975012;28;20035;-32
2021/12/13 12:37:54;;;;;;;50.53;7.93;;;;;;;;;;4975512;28;20130;-32
2021/12/13 12:40:35;;;;;;;43.20;6.38;;;;;;;;;;4975112;28;20035;-30
2021/12/13 12:43:03;;;;;;;41.53;6.63;;;;;;;;;;4975383;28;20433;-31
2021/12/13 12:45:35;;;;;;;56.03;5.25;;;;;;;;;;4957900;28;20058;-31
2021/12/13 12:48:02;;;;;;;65.30;6.63;;;;;;;;;;4975143;28;20373;-31
2021/12/13 12:50:40;;;;;;;36.10;5.20;;;;;;;;;;4975546;28;20142;-31
2021/12/13 12:53:08;;;;;;;59.05;6.10;;;;;;;;;;4975470;28;20022;-32
2021/12/13 12:55:49;;;;;;;46.85;6.13;;;;;;;;;;4975177;28;20039;-32
2021/12/13 12:58:26;;;;;;;61.88;10.63;;;;;;;;;;4974889;28;20402;-31
2021/12/13 13:00:54;;;;;;;40.22;5.63;;;;;;;;;;4974760;28;20056;-32
2021/12/13 13:03:35;;;;;;;32.05;5.25;;;;;;;;;;4957730;28;20130;-31
2021/12/13 13:06:09;;;;;;;67.13;9.27;;;;;;;;;;4974881;28;20023;-32
2021/12/13 13:08:37;;;;;;;64.22;8.35;;;;;;;;;;4974855;28;20430;-30
2021/12/13 13:13:50;;;;;;;57.20;6.18;;;;;;;;;;4974851;28;20050;-31
2021/12/13 13:16:17;;;;;;;53.65;7.95;;;;;;;;;;4974830;28;20065;-30
2021/12/13 13:18:44;;;;;;;49.55;6.38;;;;;;;;;;4975034;28;20023;-30
2021/12/13 13:21:11;;;;;;;54.28;6.00;;;;;;;;;;4974985;28;20027;-31
2021/12/13 13:23:40;;;;;;;54.13;7.38;;;;;;;;;;4974572;28;20027;-32
2021/12/13 13:26:06;;;;;;;60.92;6.32;;;;;;;;;;4975239;28;20019;-30
2021/12/13 13:28:38;;;;;;;51.25;5.22;;;;;;;;;;4974995;28;20121;-31
2021/12/13 13:31:11;;;;;;;47.33;6.15;;;;;;;;;;4974515;28;20051;-30
2021/12/13 13:33:43;;;;;;;46.25;7.90;;;;;;;;;;4974931;28;20031;-31
2021/12/13 13:36:11;;;;;;;45.47;5.72;;;;;;;;;;4974924;28;20031;-32
2021/12/13 13:38:38;;;;;;;51.38;6.72;;;;;;;;;;4957598;28;20031;-30
2021/12/13 13:41:07;;;;;;;44.33;5.68;;;;;;;;;;4975010;28;20023;-30
2021/12/13 13:43:37;;;;;;;54.40;6.47;;;;;;;;;;4977975;28;20050;-30
2021/12/13 13:46:04;;;;;;;83.72;8.43;;;;;;;;;;4977999;28;20081;-31
2021/12/13 13:48:36;;;;;;;58.35;8.00;;;;;;;;;;4960858;28;20028;-31
2021/12/13 13:51:11;;;;;;;74.93;8.68;;;;;;;;;;4978002;28;20030;-31
2021/12/13 13:53:40;;;;;;;58.88;6.50;;;;;;;;;;4977895;28;20027;-31
2021/12/13 13:56:12;;;;;;;52.70;5.68;;;;;;;;;;4977942;28;20042;-31
2021/12/13 13:58:46;;;;;;;57.65;7.18;;;;;;;;;;4977790;28;20089;-31
2021/12/13 14:01:31;;;;;;;59.05;8.00;;;;;;;;;;4960736;28;20037;-31
2021/12/13 14:03:59;;;;;;;58.38;7.53;;;;;;;;;;4960491;28;20419;-31
2021/12/13 14:06:40;;;;;;;43.70;8.82;;;;;;;;;;4960530;28;20023;-31
2021/12/13 14:09:12;;;;;;;54.83;8.88;;;;;;;;;;4960602;28;20406;-31
2021/12/13 14:11:50;;;;;;;53.65;6.43;;;;;;;;;;4960632;28;20130;-30
2021/12/13 14:14:19;;;;;;;;;;;;;;;;;;4977885;28;20061;-30
2021/12/13 14:16:47;;;;;;;40.72;6.72;;;;;;;;;;4978063;28;20290;-31
2021/12/13 14:19:25;;;;;;;65.45;9.57;;;;;;;;;;4977627;28;20118;-31
2021/12/13 14:21:52;;;;;;;63.05;8.02;;;;;;;;;;4977636;28;20093;-31
2021/12/13 14:24:18;;;;;;;41.10;6.03;;;;;;;;;;4977974;28;20375;-31
2021/12/13 14:26:44;;;;;;;47.63;6.57;;;;;;;;;;4978055;28;20027;-31
2021/12/13 14:29:11;;;;;;;46.65;6.65;;;;;;;;;;4977634;28;20479;-31
2021/12/13 14:31:41;;;;;;;53.50;6.80;;;;;;;;;;4961370;28;20031;-31
2021/12/13 14:34:18;;;;;;;63.63;7.57;;;;;;;;;;4977568;28;20050;-32
2021/12/13 14:36:56;;;;;;;44.58;5.55;;;;;;;;;;4977129;28;20334;-30
2021/12/13 14:39:29;;;;;;;55.35;8.55;;;;;;;;;;4977194;28;20351;-31
2021/12/13 14:41:56;;;;;;;62.42;7.97;;;;;;;;;;4976965;28;20019;-31
2021/12/13 14:44:24;;;;;;;58.50;8.80;;;;;;;;;;4976896;28;20050;-31
2021/12/13 14:46:53;;;;;;;80.93;7.63;;;;;;;;;;4960031;28;20114;-31
2021/12/13 14:49:24;;;;;;;65.22;7.50;;;;;;;;;;4977141;28;20106;-30
2021/12/13 14:52:10;;;;;;;49.67;6.45;;;;;;;;;;4976763;28;20031;-31
2021/12/13 14:54:37;;;;;;;54.75;7.13;;;;;;;;;;4977245;28;20038;-31
2021/12/13 14:57:09;;;;;;;60.33;5.93;;;;;;;;;;4960569;28;20111;-30
2021/12/13 14:59:37;;;;;;;48.75;6.05;;;;;;;;;;4977126;28;20335;-30
2021/12/13 15:02:11;;;;;;;69.32;9.40;;;;;;;;;;4976852;28;20428;-30
2021/12/13 15:04:37;;;;;;;54.20;10.15;;;;;;;;;;4977052;28;20030;-30
2021/12/13 15:07:12;;;;;;;72.93;7.25;;;;;;;;;;4976816;28;20026;-31
2021/12/13 15:09:49;;;;;;;49.83;7.05;;;;;;;;;;4976960;28;20113;-30
2021/12/13 15:12:17;;;;;;;45.85;6.18;;;;;;;;;;4976860;28;20094;-31
2021/12/13 15:14:45;;;;;;;56.75;7.10;;;;;;;;;;4976865;28;20406;-30
2021/12/13 15:17:23;;;;;;;71.18;7.63;;;;;;;;;;4976766;28;20062;-30
2021/12/13 15:19:51;;;;;;;53.92;7.30;;;;;;;;;;4976611;28;20031;-30
2021/12/13 15:22:17;;;;;;;59.67;8.65;;;;;;;;;;4976291;28;20343;-30
2021/12/13 15:24:44;;;;;;;52.60;8.38;;;;;;;;;;4976960;28;20023;-30